sensor_id;sensor_type;location;lat;lon;timestamp;P1;durP1;ratioP1;P2;durP2;ratioP2
13989;SDS011;7069;52.528;13.316;2023-03-01T00:02:01;19.20;;;13.87;;
13989;SDS011;7069;52.528;13.316;2023-03-01T00:04:29;22.33;;;16.53;;
13989;SDS011;7069;52.528;13.316;2023-03-01T00:06:56;19.30;;;14.70;;
13989;SDS011;7069;52.528;13.316;2023-03-01T00:09:23;22.90;;;17.20;;
13989;SDS011;7069;52.528;13.316;2023-03-01T00:11:51;23.37;;;16.90;;
13989;SDS011;7069;52.528;13.316;2023-03-01T00:14:17;23.40;;;16.03;;
13989;SDS011;7069;52.528;13.316;2023-03-01T00:16:44;24.37;;;16.37;;
13989;SDS011;7069;52.528;13.316;2023-03-01T00:19:12;23.67;;;15.47;;
13989;SDS011;7069;52.528;13.316;2023-03-01T00:21:39;22.40;;;15.23;;
13989;SDS011;7069;52.528;13.316;2023-03-01T00:24:05;19.80;;;14.77;;
13989;SDS011;7069;52.528;13.316;2023-03-01T00:26:32;18.63;;;14.60;;
13989;SDS011;7069;52.528;13.316;2023-03-01T00:29:00;17.97;;;14.23;;
13989;SDS011;7069;52.528;13.316;2023-03-01T00:31:28;19.10;;;14.47;;
13989;SDS011;7069;52.528;13.316;2023-03-01T00:33:56;20.10;;;15.33;;
13989;SDS011;7069;52.528;13.316;2023-03-01T00:36:23;22.43;;;14.37;;
13989;SDS011;7069;52.528;13.316;2023-03-01T00:38:51;21.37;;;16.30;;
13989;SDS011;7069;52.528;13.316;2023-03-01T00:41:18;22.07;;;14.27;;
13989;SDS011;7069;52.528;13.316;2023-03-01T00:43:45;24.60;;;15.43;;
13989;SDS011;7069;52.528;13.316;2023-03-01T00:46:13;19.60;;;14.40;;
13989;SDS011;7069;52.528;13.316;2023-03-01T00:48:40;17.70;;;14.23;;
13989;SDS011;7069;52.528;13.316;2023-03-01T00:51:10;17.13;;;13.07;;
13989;SDS011;7069;52.528;13.316;2023-03-01T00:53:37;26.33;;;17.07;;
13989;SDS011;7069;52.528;13.316;2023-03-01T00:56:05;20.40;;;14.40;;
13989;SDS011;7069;52.528;13.316;2023-03-01T00:58:32;19.43;;;14.20;;
13989;SDS011;7069;52.528;13.316;2023-03-01T01:00:59;21.67;;;14.77;;
13989;SDS011;7069;52.528;13.316;2023-03-01T01:03:27;21.23;;;15.03;;
13989;SDS011;7069;52.528;13.316;2023-03-01T01:05:54;22.57;;;14.63;;
13989;SDS011;7069;52.528;13.316;2023-03-01T01:08:20;20.77;;;14.23;;
13989;SDS011;7069;52.528;13.316;2023-03-01T01:10:47;18.30;;;14.50;;
13989;SDS011;7069;52.528;13.316;2023-03-01T01:13:13;20.77;;;15.17;;
13989;SDS011;7069;52.528;13.316;2023-03-01T01:15:40;19.57;;;13.97;;
13989;SDS011;7069;52.528;13.316;2023-03-01T01:18:07;20.33;;;14.43;;
13989;SDS011;7069;52.528;13.316;2023-03-01T01:20:36;21.33;;;14.17;;
13989;SDS011;7069;52.528;13.316;2023-03-01T01:23:04;17.57;;;12.87;;
13989;SDS011;7069;52.528;13.316;2023-03-01T01:25:33;17.67;;;12.37;;
13989;SDS011;7069;52.528;13.316;2023-03-01T01:28:00;21.13;;;13.73;;
13989;SDS011;7069;52.528;13.316;2023-03-01T01:30:26;21.73;;;13.23;;
13989;SDS011;7069;52.528;13.316;2023-03-01T01:32:53;21.77;;;13.63;;
13989;SDS011;7069;52.528;13.316;2023-03-01T01:35:20;18.20;;;14.57;;
13989;SDS011;7069;52.528;13.316;2023-03-01T01:37:48;17.97;;;14.00;;
13989;SDS011;7069;52.528;13.316;2023-03-01T01:40:15;19.00;;;14.57;;
13989;SDS011;7069;52.528;13.316;2023-03-01T01:42:41;19.83;;;14.03;;
13989;SDS011;7069;52.528;13.316;2023-03-01T01:45:28;18.77;;;13.77;;
13989;SDS011;7069;52.528;13.316;2023-03-01T01:47:57;15.33;;;12.83;;
13989;SDS011;7069;52.528;13.316;2023-03-01T01:50:25;25.27;;;14.03;;
13989;SDS011;7069;52.528;13.316;2023-03-01T01:52:53;20.73;;;14.10;;
13989;SDS011;7069;52.528;13.316;2023-03-01T01:55:21;18.37;;;13.47;;
13989;SDS011;7069;52.528;13.316;2023-03-01T01:57:49;17.33;;;12.63;;
13989;SDS011;7069;52.528;13.316;2023-03-01T02:00:18;16.13;;;12.20;;
13989;SDS011;7069;52.528;13.316;2023-03-01T02:02:46;20.43;;;13.07;;
13989;SDS011;7069;52.528;13.316;2023-03-01T02:05:15;22.87;;;13.73;;
13989;SDS011;7069;52.528;13.316;2023-03-01T02:07:44;18.27;;;13.27;;
13989;SDS011;7069;52.528;13.316;2023-03-01T02:10:12;18.00;;;13.77;;
13989;SDS011;7069;52.528;13.316;2023-03-01T02:12:39;18.70;;;14.00;;
13989;SDS011;7069;52.528;13.316;2023-03-01T02:15:06;16.93;;;13.80;;
13989;SDS011;7069;52.528;13.316;2023-03-01T02:17:34;18.43;;;13.60;;
13989;SDS011;7069;52.528;13.316;2023-03-01T02:20:04;21.20;;;14.20;;
13989;SDS011;7069;52.528;13.316;2023-03-01T02:22:37;19.47;;;14.50;;
13989;SDS011;7069;52.528;13.316;2023-03-01T02:25:07;18.33;;;13.37;;
13989;SDS011;7069;52.528;13.316;2023-03-01T02:27:40;16.83;;;14.97;;
13989;SDS011;7069;52.528;13.316;2023-03-01T02:30:10;19.13;;;14.13;;
13989;SDS011;7069;52.528;13.316;2023-03-01T02:32:38;16.23;;;13.80;;
13989;SDS011;7069;52.528;13.316;2023-03-01T02:35:03;20.93;;;15.20;;
13989;SDS011;7069;52.528;13.316;2023-03-01T02:37:31;17.73;;;13.53;;
13989;SDS011;7069;52.528;13.316;2023-03-01T02:39:59;18.63;;;13.30;;
13989;SDS011;7069;52.528;13.316;2023-03-01T02:42:26;16.40;;;12.80;;
13989;SDS011;7069;52.528;13.316;2023-03-01T02:44:54;17.97;;;14.03;;
13989;SDS011;7069;52.528;13.316;2023-03-01T02:47:22;22.53;;;14.77;;
13989;SDS011;7069;52.528;13.316;2023-03-01T02:49:49;20.20;;;13.87;;
13989;SDS011;7069;52.528;13.316;2023-03-01T02:55:03;21.90;;;14.63;;
13989;SDS011;7069;52.528;13.316;2023-03-01T02:57:32;18.07;;;11.90;;
13989;SDS011;7069;52.528;13.316;2023-03-01T03:00:00;16.17;;;12.10;;
13989;SDS011;7069;52.528;13.316;2023-03-01T03:02:33;16.20;;;12.47;;
13989;SDS011;7069;52.528;13.316;2023-03-01T03:05:04;16.73;;;12.43;;
13989;SDS011;7069;52.528;13.316;2023-03-01T03:07:31;18.10;;;13.17;;
13989;SDS011;7069;52.528;13.316;2023-03-01T03:09:58;16.70;;;13.47;;
13989;SDS011;7069;52.528;13.316;2023-03-01T03:12:24;15.47;;;12.70;;
13989;SDS011;7069;52.528;13.316;2023-03-01T03:14:51;16.37;;;12.23;;
13989;SDS011;7069;52.528;13.316;2023-03-01T03:17:17;18.67;;;12.50;;
13989;SDS011;7069;52.528;13.316;2023-03-01T03:19:45;16.60;;;12.87;;
13989;SDS011;7069;52.528;13.316;2023-03-01T03:22:12;19.27;;;13.53;;
13989;SDS011;7069;52.528;13.316;2023-03-01T03:24:39;17.80;;;14.77;;
13989;SDS011;7069;52.528;13.316;2023-03-01T03:27:06;19.10;;;13.87;;
13989;SDS011;7069;52.528;13.316;2023-03-01T03:29:32;17.83;;;14.97;;
13989;SDS011;7069;52.528;13.316;2023-03-01T03:31:59;19.03;;;13.47;;
13989;SDS011;7069;52.528;13.316;2023-03-01T03:34:26;19.00;;;13.33;;
13989;SDS011;7069;52.528;13.316;2023-03-01T03:36:54;25.50;;;15.37;;
13989;SDS011;7069;52.528;13.316;2023-03-01T03:39:24;17.17;;;14.47;;
13989;SDS011;7069;52.528;13.316;2023-03-01T03:41:51;19.47;;;15.00;;
13989;SDS011;7069;52.528;13.316;2023-03-01T03:44:18;19.33;;;15.07;;
13989;SDS011;7069;52.528;13.316;2023-03-01T03:46:44;18.13;;;13.87;;
13989;SDS011;7069;52.528;13.316;2023-03-01T03:49:11;16.50;;;14.47;;
13989;SDS011;7069;52.528;13.316;2023-03-01T03:51:37;21.80;;;14.77;;
13989;SDS011;7069;52.528;13.316;2023-03-01T03:54:05;17.63;;;14.63;;
13989;SDS011;7069;52.528;13.316;2023-03-01T03:56:32;17.70;;;12.43;;
13989;SDS011;7069;52.528;13.316;2023-03-01T03:58:58;17.57;;;13.43;;
13989;SDS011;7069;52.528;13.316;2023-03-01T04:01:25;24.53;;;14.37;;
13989;SDS011;7069;52.528;13.316;2023-03-01T04:03:52;20.07;;;13.73;;
13989;SDS011;7069;52.528;13.316;2023-03-01T04:06:19;17.97;;;13.53;;
13989;SDS011;7069;52.528;13.316;2023-03-01T04:08:46;17.70;;;13.10;;
13989;SDS011;7069;52.528;13.316;2023-03-01T04:11:17;16.33;;;13.10;;
13989;SDS011;7069;52.528;13.316;2023-03-01T04:14:00;18.33;;;13.50;;
13989;SDS011;7069;52.528;13.316;2023-03-01T04:16:29;17.07;;;12.80;;
13989;SDS011;7069;52.528;13.316;2023-03-01T04:18:56;19.97;;;14.10;;
13989;SDS011;7069;52.528;13.316;2023-03-01T04:21:24;18.67;;;13.87;;
13989;SDS011;7069;52.528;13.316;2023-03-01T04:23:51;20.13;;;14.27;;
13989;SDS011;7069;52.528;13.316;2023-03-01T04:26:22;17.43;;;12.57;;
13989;SDS011;7069;52.528;13.316;2023-03-01T04:28:49;21.70;;;15.00;;
13989;SDS011;7069;52.528;13.316;2023-03-01T04:31:19;19.00;;;13.47;;
13989;SDS011;7069;52.528;13.316;2023-03-01T04:33:47;20.77;;;13.13;;
13989;SDS011;7069;52.528;13.316;2023-03-01T04:36:14;23.80;;;14.50;;
13989;SDS011;7069;52.528;13.316;2023-03-01T04:38:43;18.90;;;13.50;;
13989;SDS011;7069;52.528;13.316;2023-03-01T04:41:13;17.27;;;12.90;;
13989;SDS011;7069;52.528;13.316;2023-03-01T04:43:41;18.97;;;13.10;;
13989;SDS011;7069;52.528;13.316;2023-03-01T04:46:08;16.50;;;13.90;;
13989;SDS011;7069;52.528;13.316;2023-03-01T04:48:37;19.10;;;13.73;;
13989;SDS011;7069;52.528;13.316;2023-03-01T04:51:04;20.50;;;13.50;;
13989;SDS011;7069;52.528;13.316;2023-03-01T04:53:31;18.30;;;13.03;;
13989;SDS011;7069;52.528;13.316;2023-03-01T04:55:58;16.03;;;12.70;;
13989;SDS011;7069;52.528;13.316;2023-03-01T04:58:26;19.20;;;13.87;;
13989;SDS011;7069;52.528;13.316;2023-03-01T05:00:55;21.30;;;14.83;;
13989;SDS011;7069;52.528;13.316;2023-03-01T05:03:21;21.07;;;14.33;;
13989;SDS011;7069;52.528;13.316;2023-03-01T05:05:49;32.10;;;18.97;;
13989;SDS011;7069;52.528;13.316;2023-03-01T05:08:16;32.50;;;20.90;;
13989;SDS011;7069;52.528;13.316;2023-03-01T05:10:43;37.40;;;22.20;;
13989;SDS011;7069;52.528;13.316;2023-03-01T05:13:11;33.57;;;21.50;;
13989;SDS011;7069;52.528;13.316;2023-03-01T05:15:38;31.73;;;20.23;;
13989;SDS011;7069;52.528;13.316;2023-03-01T05:18:06;34.30;;;22.00;;
13989;SDS011;7069;52.528;13.316;2023-03-01T05:20:36;39.63;;;23.73;;
13989;SDS011;7069;52.528;13.316;2023-03-01T05:23:03;38.57;;;23.87;;
13989;SDS011;7069;52.528;13.316;2023-03-01T05:25:30;34.60;;;18.50;;
13989;SDS011;7069;52.528;13.316;2023-03-01T05:27:58;26.23;;;16.90;;
13989;SDS011;7069;52.528;13.316;2023-03-01T05:30:29;26.57;;;16.93;;
13989;SDS011;7069;52.528;13.316;2023-03-01T05:32:56;24.23;;;16.40;;
13989;SDS011;7069;52.528;13.316;2023-03-01T05:35:24;21.83;;;15.57;;
13989;SDS011;7069;52.528;13.316;2023-03-01T05:37:50;20.97;;;14.73;;
13989;SDS011;7069;52.528;13.316;2023-03-01T05:40:18;19.93;;;15.23;;
13989;SDS011;7069;52.528;13.316;2023-03-01T05:42:46;20.00;;;14.20;;
13989;SDS011;7069;52.528;13.316;2023-03-01T05:45:14;17.33;;;13.47;;
13989;SDS011;7069;52.528;13.316;2023-03-01T05:47:41;17.70;;;13.17;;
13989;SDS011;7069;52.528;13.316;2023-03-01T05:50:10;18.70;;;13.00;;
13989;SDS011;7069;52.528;13.316;2023-03-01T05:52:38;18.83;;;13.13;;
13989;SDS011;7069;52.528;13.316;2023-03-01T05:55:05;17.67;;;13.03;;
13989;SDS011;7069;52.528;13.316;2023-03-01T05:57:32;17.57;;;12.63;;
13989;SDS011;7069;52.528;13.316;2023-03-01T05:59:58;18.40;;;13.80;;
13989;SDS011;7069;52.528;13.316;2023-03-01T06:02:25;17.83;;;14.00;;
13989;SDS011;7069;52.528;13.316;2023-03-01T06:04:52;19.00;;;13.00;;
13989;SDS011;7069;52.528;13.316;2023-03-01T06:07:19;17.23;;;13.77;;
13989;SDS011;7069;52.528;13.316;2023-03-01T06:09:47;18.03;;;13.53;;
13989;SDS011;7069;52.528;13.316;2023-03-01T06:12:13;20.40;;;14.53;;
13989;SDS011;7069;52.528;13.316;2023-03-01T06:14:40;17.33;;;14.10;;
13989;SDS011;7069;52.528;13.316;2023-03-01T06:17:06;20.53;;;13.47;;
13989;SDS011;7069;52.528;13.316;2023-03-01T06:19:33;19.80;;;14.27;;
13989;SDS011;7069;52.528;13.316;2023-03-01T06:21:59;18.97;;;12.97;;
13989;SDS011;7069;52.528;13.316;2023-03-01T06:24:26;18.30;;;13.47;;
13989;SDS011;7069;52.528;13.316;2023-03-01T06:26:55;17.37;;;13.63;;
13989;SDS011;7069;52.528;13.316;2023-03-01T06:29:21;22.73;;;14.80;;
13989;SDS011;7069;52.528;13.316;2023-03-01T06:31:48;17.87;;;12.40;;
13989;SDS011;7069;52.528;13.316;2023-03-01T06:34:15;18.13;;;13.67;;
13989;SDS011;7069;52.528;13.316;2023-03-01T06:36:41;17.40;;;13.23;;
13989;SDS011;7069;52.528;13.316;2023-03-01T06:39:08;20.67;;;12.93;;
13989;SDS011;7069;52.528;13.316;2023-03-01T06:41:35;18.07;;;13.47;;
13989;SDS011;7069;52.528;13.316;2023-03-01T06:44:03;17.30;;;13.83;;
13989;SDS011;7069;52.528;13.316;2023-03-01T06:46:29;20.03;;;13.57;;
13989;SDS011;7069;52.528;13.316;2023-03-01T06:48:56;17.77;;;14.33;;
13989;SDS011;7069;52.528;13.316;2023-03-01T06:51:23;27.47;;;15.03;;
13989;SDS011;7069;52.528;13.316;2023-03-01T06:53:50;23.67;;;14.03;;
13989;SDS011;7069;52.528;13.316;2023-03-01T06:56:16;22.10;;;14.93;;
13989;SDS011;7069;52.528;13.316;2023-03-01T06:58:43;19.13;;;13.97;;
13989;SDS011;7069;52.528;13.316;2023-03-01T07:01:11;20.40;;;14.67;;
13989;SDS011;7069;52.528;13.316;2023-03-01T07:03:37;22.57;;;14.47;;
13989;SDS011;7069;52.528;13.316;2023-03-01T07:06:04;18.97;;;15.20;;
13989;SDS011;7069;52.528;13.316;2023-03-01T07:08:30;19.73;;;15.13;;
13989;SDS011;7069;52.528;13.316;2023-03-01T07:10:57;20.07;;;14.60;;
13989;SDS011;7069;52.528;13.316;2023-03-01T07:13:24;18.57;;;13.10;;
13989;SDS011;7069;52.528;13.316;2023-03-01T07:15:50;16.60;;;13.83;;
13989;SDS011;7069;52.528;13.316;2023-03-01T07:18:18;15.77;;;14.07;;
13989;SDS011;7069;52.528;13.316;2023-03-01T07:20:45;21.50;;;13.60;;
13989;SDS011;7069;52.528;13.316;2023-03-01T07:23:11;17.87;;;14.13;;
13989;SDS011;7069;52.528;13.316;2023-03-01T07:25:38;17.37;;;13.67;;
13989;SDS011;7069;52.528;13.316;2023-03-01T07:28:04;23.97;;;15.00;;
13989;SDS011;7069;52.528;13.316;2023-03-01T07:30:31;21.93;;;15.50;;
13989;SDS011;7069;52.528;13.316;2023-03-01T07:32:58;16.23;;;13.67;;
13989;SDS011;7069;52.528;13.316;2023-03-01T07:35:26;17.17;;;14.03;;
13989;SDS011;7069;52.528;13.316;2023-03-01T07:37:53;21.47;;;15.37;;
13989;SDS011;7069;52.528;13.316;2023-03-01T07:40:19;20.50;;;14.13;;
13989;SDS011;7069;52.528;13.316;2023-03-01T07:42:46;21.13;;;15.17;;
13989;SDS011;7069;52.528;13.316;2023-03-01T07:45:12;19.13;;;15.10;;
13989;SDS011;7069;52.528;13.316;2023-03-01T07:47:39;19.23;;;15.47;;
13989;SDS011;7069;52.528;13.316;2023-03-01T07:50:06;19.20;;;14.67;;
13989;SDS011;7069;52.528;13.316;2023-03-01T07:52:34;19.80;;;13.90;;
13989;SDS011;7069;52.528;13.316;2023-03-01T07:55:01;20.00;;;13.47;;
13989;SDS011;7069;52.528;13.316;2023-03-01T07:57:28;20.77;;;14.10;;
13989;SDS011;7069;52.528;13.316;2023-03-01T07:59:54;18.97;;;12.63;;
13989;SDS011;7069;52.528;13.316;2023-03-01T08:02:21;19.37;;;14.27;;
13989;SDS011;7069;52.528;13.316;2023-03-01T08:04:48;20.27;;;13.00;;
13989;SDS011;7069;52.528;13.316;2023-03-01T08:07:14;19.10;;;13.67;;
13989;SDS011;7069;52.528;13.316;2023-03-01T08:09:42;18.60;;;13.30;;
13989;SDS011;7069;52.528;13.316;2023-03-01T08:12:09;17.80;;;12.20;;
13989;SDS011;7069;52.528;13.316;2023-03-01T08:14:35;16.93;;;12.13;;
13989;SDS011;7069;52.528;13.316;2023-03-01T08:17:02;17.43;;;12.50;;
13989;SDS011;7069;52.528;13.316;2023-03-01T08:19:29;15.50;;;11.83;;
13989;SDS011;7069;52.528;13.316;2023-03-01T08:21:55;16.90;;;12.10;;
13989;SDS011;7069;52.528;13.316;2023-03-01T08:24:23;14.70;;;10.87;;
13989;SDS011;7069;52.528;13.316;2023-03-01T08:26:51;13.50;;;9.93;;
13989;SDS011;7069;52.528;13.316;2023-03-01T08:29:18;12.67;;;9.40;;
13989;SDS011;7069;52.528;13.316;2023-03-01T08:31:44;13.33;;;7.83;;
13989;SDS011;7069;52.528;13.316;2023-03-01T08:34:12;14.53;;;8.93;;
13989;SDS011;7069;52.528;13.316;2023-03-01T08:36:39;11.47;;;8.53;;
13989;SDS011;7069;52.528;13.316;2023-03-01T08:39:07;14.10;;;10.80;;
13989;SDS011;7069;52.528;13.316;2023-03-01T08:41:34;10.83;;;8.53;;
13989;SDS011;7069;52.528;13.316;2023-03-01T08:44:02;13.77;;;7.83;;
13989;SDS011;7069;52.528;13.316;2023-03-01T08:46:29;10.70;;;7.40;;
13989;SDS011;7069;52.528;13.316;2023-03-01T08:48:56;10.47;;;9.00;;
13989;SDS011;7069;52.528;13.316;2023-03-01T08:51:23;10.67;;;8.93;;
13989;SDS011;7069;52.528;13.316;2023-03-01T08:53:50;9.70;;;7.87;;
13989;SDS011;7069;52.528;13.316;2023-03-01T08:56:17;11.33;;;7.70;;
13989;SDS011;7069;52.528;13.316;2023-03-01T08:58:44;10.13;;;7.30;;
13989;SDS011;7069;52.528;13.316;2023-03-01T09:01:15;12.93;;;8.30;;
13989;SDS011;7069;52.528;13.316;2023-03-01T09:03:41;16.17;;;9.00;;
13989;SDS011;7069;52.528;13.316;2023-03-01T09:06:08;11.40;;;7.63;;
13989;SDS011;7069;52.528;13.316;2023-03-01T09:08:35;9.43;;;7.17;;
13989;SDS011;7069;52.528;13.316;2023-03-01T09:11:02;9.63;;;7.10;;
13989;SDS011;7069;52.528;13.316;2023-03-01T09:13:29;8.20;;;5.97;;
13989;SDS011;7069;52.528;13.316;2023-03-01T09:15:56;6.30;;;5.53;;
13989;SDS011;7069;52.528;13.316;2023-03-01T09:18:24;7.30;;;5.67;;
13989;SDS011;7069;52.528;13.316;2023-03-01T09:20:50;8.67;;;5.10;;
13989;SDS011;7069;52.528;13.316;2023-03-01T09:23:19;6.57;;;5.03;;
13989;SDS011;7069;52.528;13.316;2023-03-01T09:25:46;7.20;;;4.27;;
13989;SDS011;7069;52.528;13.316;2023-03-01T09:28:12;7.10;;;4.90;;
13989;SDS011;7069;52.528;13.316;2023-03-01T09:30:39;6.63;;;4.50;;
13989;SDS011;7069;52.528;13.316;2023-03-01T09:33:06;5.23;;;4.37;;
13989;SDS011;7069;52.528;13.316;2023-03-01T09:35:34;5.50;;;4.57;;
13989;SDS011;7069;52.528;13.316;2023-03-01T09:38:00;6.27;;;5.10;;
13989;SDS011;7069;52.528;13.316;2023-03-01T09:40:27;5.43;;;4.70;;
13989;SDS011;7069;52.528;13.316;2023-03-01T09:42:54;8.13;;;5.10;;
13989;SDS011;7069;52.528;13.316;2023-03-01T09:45:25;5.80;;;3.87;;
13989;SDS011;7069;52.528;13.316;2023-03-01T09:47:52;6.57;;;4.57;;
13989;SDS011;7069;52.528;13.316;2023-03-01T09:50:19;6.37;;;4.97;;
13989;SDS011;7069;52.528;13.316;2023-03-01T09:52:48;5.93;;;5.03;;
13989;SDS011;7069;52.528;13.316;2023-03-01T09:55:16;10.30;;;5.43;;
13989;SDS011;7069;52.528;13.316;2023-03-01T09:57:46;6.63;;;4.43;;
13989;SDS011;7069;52.528;13.316;2023-03-01T10:00:16;5.07;;;4.13;;
13989;SDS011;7069;52.528;13.316;2023-03-01T10:02:45;6.83;;;4.63;;
13989;SDS011;7069;52.528;13.316;2023-03-01T10:05:25;5.33;;;3.67;;
13989;SDS011;7069;52.528;13.316;2023-03-01T10:07:58;6.20;;;4.17;;
13989;SDS011;7069;52.528;13.316;2023-03-01T10:10:31;4.80;;;3.70;;
13989;SDS011;7069;52.528;13.316;2023-03-01T10:12:58;5.90;;;4.40;;
13989;SDS011;7069;52.528;13.316;2023-03-01T10:15:30;4.37;;;3.77;;
13989;SDS011;7069;52.528;13.316;2023-03-01T10:18:00;5.47;;;4.27;;
13989;SDS011;7069;52.528;13.316;2023-03-01T10:20:30;6.10;;;4.07;;
13989;SDS011;7069;52.528;13.316;2023-03-01T10:22:59;4.23;;;3.80;;
13989;SDS011;7069;52.528;13.316;2023-03-01T10:25:31;7.93;;;4.60;;
13989;SDS011;7069;52.528;13.316;2023-03-01T10:28:04;10.80;;;5.57;;
13989;SDS011;7069;52.528;13.316;2023-03-01T10:30:36;6.17;;;5.00;;
13989;SDS011;7069;52.528;13.316;2023-03-01T10:33:04;7.07;;;5.10;;
13989;SDS011;7069;52.528;13.316;2023-03-01T10:35:35;8.13;;;5.23;;
13989;SDS011;7069;52.528;13.316;2023-03-01T10:38:06;6.30;;;5.23;;
13989;SDS011;7069;52.528;13.316;2023-03-01T10:40:34;4.60;;;4.17;;
13989;SDS011;7069;52.528;13.316;2023-03-01T10:43:01;5.87;;;5.17;;
13989;SDS011;7069;52.528;13.316;2023-03-01T10:45:33;6.63;;;4.03;;
13989;SDS011;7069;52.528;13.316;2023-03-01T10:48:03;6.63;;;4.50;;
13989;SDS011;7069;52.528;13.316;2023-03-01T10:50:30;4.77;;;4.17;;
13989;SDS011;7069;52.528;13.316;2023-03-01T10:52:57;7.97;;;4.90;;
13989;SDS011;7069;52.528;13.316;2023-03-01T10:55:26;8.00;;;3.80;;
13989;SDS011;7069;52.528;13.316;2023-03-01T10:58:05;4.90;;;4.17;;
13989;SDS011;7069;52.528;13.316;2023-03-01T11:00:32;6.43;;;4.37;;
13989;SDS011;7069;52.528;13.316;2023-03-01T11:03:03;6.40;;;4.27;;
13989;SDS011;7069;52.528;13.316;2023-03-01T11:05:29;5.37;;;4.30;;
13989;SDS011;7069;52.528;13.316;2023-03-01T11:07:59;5.70;;;4.57;;
13989;SDS011;7069;52.528;13.316;2023-03-01T11:10:27;4.60;;;4.10;;
13989;SDS011;7069;52.528;13.316;2023-03-01T11:13:04;6.33;;;4.07;;
13989;SDS011;7069;52.528;13.316;2023-03-01T11:15:31;5.93;;;4.37;;
13989;SDS011;7069;52.528;13.316;2023-03-01T11:17:58;4.43;;;3.80;;
13989;SDS011;7069;52.528;13.316;2023-03-01T11:20:29;5.70;;;4.23;;
13989;SDS011;7069;52.528;13.316;2023-03-01T11:22:56;6.13;;;4.30;;
13989;SDS011;7069;52.528;13.316;2023-03-01T11:25:26;5.97;;;3.70;;
13989;SDS011;7069;52.528;13.316;2023-03-01T11:27:54;3.50;;;2.60;;
13989;SDS011;7069;52.528;13.316;2023-03-01T11:30:23;3.87;;;3.40;;
13989;SDS011;7069;52.528;13.316;2023-03-01T11:32:53;5.67;;;3.80;;
13989;SDS011;7069;52.528;13.316;2023-03-01T11:35:23;5.87;;;3.57;;
13989;SDS011;7069;52.528;13.316;2023-03-01T11:37:55;6.43;;;4.03;;
13989;SDS011;7069;52.528;13.316;2023-03-01T11:40:25;5.03;;;3.43;;
13989;SDS011;7069;52.528;13.316;2023-03-01T11:42:56;5.67;;;3.23;;
13989;SDS011;7069;52.528;13.316;2023-03-01T11:45:25;5.73;;;4.60;;
13989;SDS011;7069;52.528;13.316;2023-03-01T11:48:01;4.37;;;3.07;;
13989;SDS011;7069;52.528;13.316;2023-03-01T11:50:34;5.93;;;3.70;;
13989;SDS011;7069;52.528;13.316;2023-03-01T11:53:05;5.60;;;2.93;;
13989;SDS011;7069;52.528;13.316;2023-03-01T11:55:51;4.27;;;3.47;;
13989;SDS011;7069;52.528;13.316;2023-03-01T11:58:35;5.73;;;3.63;;
13989;SDS011;7069;52.528;13.316;2023-03-01T12:01:10;6.03;;;2.83;;
13989;SDS011;7069;52.528;13.316;2023-03-01T12:03:45;3.47;;;3.17;;
13989;SDS011;7069;52.528;13.316;2023-03-01T12:06:22;3.63;;;2.97;;
13989;SDS011;7069;52.528;13.316;2023-03-01T12:08:52;5.47;;;3.33;;
13989;SDS011;7069;52.528;13.316;2023-03-01T12:11:24;4.00;;;3.00;;
13989;SDS011;7069;52.528;13.316;2023-03-01T12:16:44;3.83;;;3.30;;
13989;SDS011;7069;52.528;13.316;2023-03-01T12:19:21;4.33;;;2.80;;
13989;SDS011;7069;52.528;13.316;2023-03-01T12:24:40;3.33;;;3.03;;
13989;SDS011;7069;52.528;13.316;2023-03-01T12:27:17;6.67;;;3.47;;
13989;SDS011;7069;52.528;13.316;2023-03-01T12:29:49;4.67;;;2.97;;
13989;SDS011;7069;52.528;13.316;2023-03-01T12:32:23;3.60;;;2.70;;
13989;SDS011;7069;52.528;13.316;2023-03-01T12:34:54;5.33;;;3.77;;
13989;SDS011;7069;52.528;13.316;2023-03-01T12:37:24;8.03;;;3.37;;
13989;SDS011;7069;52.528;13.316;2023-03-01T12:39:55;3.37;;;3.07;;
13989;SDS011;7069;52.528;13.316;2023-03-01T12:42:28;3.97;;;3.47;;
13989;SDS011;7069;52.528;13.316;2023-03-01T12:45:17;3.17;;;2.87;;
13989;SDS011;7069;52.528;13.316;2023-03-01T12:47:54;7.17;;;3.40;;
13989;SDS011;7069;52.528;13.316;2023-03-01T12:50:24;3.80;;;2.90;;
13989;SDS011;7069;52.528;13.316;2023-03-01T12:52:52;6.33;;;3.00;;
13989;SDS011;7069;52.528;13.316;2023-03-01T12:55:23;2.77;;;2.53;;
13989;SDS011;7069;52.528;13.316;2023-03-01T12:57:51;3.57;;;2.73;;
13989;SDS011;7069;52.528;13.316;2023-03-01T13:00:25;3.43;;;2.57;;
13989;SDS011;7069;52.528;13.316;2023-03-01T13:02:55;3.23;;;2.93;;
13989;SDS011;7069;52.528;13.316;2023-03-01T13:05:26;3.90;;;2.57;;
13989;SDS011;7069;52.528;13.316;2023-03-01T13:07:58;5.33;;;2.97;;
13989;SDS011;7069;52.528;13.316;2023-03-01T13:10:29;2.93;;;2.47;;
13989;SDS011;7069;52.528;13.316;2023-03-01T13:13:02;4.63;;;2.30;;
13989;SDS011;7069;52.528;13.316;2023-03-01T13:15:30;4.40;;;2.07;;
13989;SDS011;7069;52.528;13.316;2023-03-01T13:17:58;2.70;;;2.43;;
13989;SDS011;7069;52.528;13.316;2023-03-01T13:20:26;4.60;;;2.50;;
13989;SDS011;7069;52.528;13.316;2023-03-01T13:23:00;4.63;;;2.53;;
13989;SDS011;7069;52.528;13.316;2023-03-01T13:25:27;4.00;;;2.80;;
13989;SDS011;7069;52.528;13.316;2023-03-01T13:27:54;3.27;;;2.53;;
13989;SDS011;7069;52.528;13.316;2023-03-01T13:30:42;3.43;;;2.27;;
13989;SDS011;7069;52.528;13.316;2023-03-01T13:35:54;3.60;;;2.00;;
13989;SDS011;7069;52.528;13.316;2023-03-01T13:38:37;2.53;;;2.33;;
13989;SDS011;7069;52.528;13.316;2023-03-01T13:41:04;2.40;;;2.20;;
13989;SDS011;7069;52.528;13.316;2023-03-01T13:43:31;2.60;;;2.30;;
13989;SDS011;7069;52.528;13.316;2023-03-01T13:45:59;3.63;;;1.87;;
13989;SDS011;7069;52.528;13.316;2023-03-01T13:48:26;2.93;;;2.20;;
13989;SDS011;7069;52.528;13.316;2023-03-01T13:50:54;7.13;;;2.60;;
13989;SDS011;7069;52.528;13.316;2023-03-01T13:53:22;2.70;;;2.10;;
13989;SDS011;7069;52.528;13.316;2023-03-01T13:55:50;3.73;;;2.67;;
13989;SDS011;7069;52.528;13.316;2023-03-01T13:58:20;4.83;;;2.07;;
13989;SDS011;7069;52.528;13.316;2023-03-01T14:00:47;3.20;;;2.40;;
13989;SDS011;7069;52.528;13.316;2023-03-01T14:03:22;2.00;;;1.90;;
13989;SDS011;7069;52.528;13.316;2023-03-01T14:05:59;4.33;;;2.10;;
13989;SDS011;7069;52.528;13.316;2023-03-01T14:08:26;2.20;;;1.87;;
13989;SDS011;7069;52.528;13.316;2023-03-01T14:13:38;3.93;;;2.67;;
13989;SDS011;7069;52.528;13.316;2023-03-01T14:16:12;2.80;;;2.13;;
13989;SDS011;7069;52.528;13.316;2023-03-01T14:18:45;2.57;;;2.07;;
13989;SDS011;7069;52.528;13.316;2023-03-01T14:21:13;2.57;;;2.37;;
13989;SDS011;7069;52.528;13.316;2023-03-01T14:23:40;4.20;;;2.30;;
13989;SDS011;7069;52.528;13.316;2023-03-01T14:26:08;4.63;;;2.13;;
13989;SDS011;7069;52.528;13.316;2023-03-01T14:28:36;3.23;;;1.80;;
13989;SDS011;7069;52.528;13.316;2023-03-01T14:31:25;2.00;;;1.80;;
13989;SDS011;7069;52.528;13.316;2023-03-01T14:33:55;4.53;;;2.27;;
13989;SDS011;7069;52.528;13.316;2023-03-01T14:36:25;3.23;;;1.87;;
13989;SDS011;7069;52.528;13.316;2023-03-01T14:38:52;3.77;;;2.20;;
13989;SDS011;7069;52.528;13.316;2023-03-01T14:41:20;2.93;;;1.90;;
13989;SDS011;7069;52.528;13.316;2023-03-01T14:43:47;3.40;;;1.97;;
13989;SDS011;7069;52.528;13.316;2023-03-01T14:46:19;2.20;;;1.90;;
13989;SDS011;7069;52.528;13.316;2023-03-01T14:48:48;3.33;;;1.70;;
13989;SDS011;7069;52.528;13.316;2023-03-01T14:51:16;2.80;;;1.50;;
13989;SDS011;7069;52.528;13.316;2023-03-01T14:53:42;2.70;;;1.87;;